createdAt,value
2023-05-08T00:01:00.886Z,10.82
2023-05-08T00:03:27.933Z,11.55
2023-05-08T00:05:55.690Z,14.07
2023-05-08T00:08:22.756Z,11.18
2023-05-08T00:10:49.911Z,14.40
2023-05-08T00:13:17.229Z,12.35
2023-05-08T00:15:44.088Z,11.00
2023-05-08T00:18:11.248Z,9.45
2023-05-08T00:20:38.115Z,12.05
2023-05-08T00:23:05.286Z,11.30
2023-05-08T00:25:32.076Z,10.07
2023-05-08T00:27:59.747Z,11.60
2023-05-08T00:30:27.097Z,9.77
2023-05-08T00:32:54.363Z,10.00
2023-05-08T00:35:21.318Z,9.57
2023-05-08T00:37:48.072Z,9.95
2023-05-08T00:40:15.077Z,9.35
2023-05-08T00:42:41.867Z,9.52
2023-05-08T00:45:09.377Z,10.80
2023-05-08T00:47:36.341Z,10.95
2023-05-08T00:50:03.473Z,11.20
2023-05-08T00:52:32.673Z,13.52
2023-05-08T00:55:01.397Z,11.65
2023-05-08T00:57:32.237Z,10.70
2023-05-08T01:00:00.746Z,11.32
2023-05-08T01:02:28.202Z,10.18
2023-05-08T01:04:55.612Z,9.98
2023-05-08T01:07:22.764Z,10.98
2023-05-08T01:09:49.626Z,10.73
2023-05-08T01:12:51.901Z,11.23
2023-05-08T01:15:27.175Z,13.00
2023-05-08T01:18:23.094Z,11.20
2023-05-08T01:21:16.972Z,10.55
2023-05-08T01:24:13.792Z,11.52
2023-05-08T01:27:07.157Z,14.38
2023-05-08T01:30:07.175Z,12.60
2023-05-08T01:32:38.374Z,11.23
2023-05-08T01:35:26.221Z,12.50
2023-05-08T01:38:19.296Z,12.93
2023-05-08T01:40:56.571Z,11.10
2023-05-08T01:44:08.410Z,9.55
2023-05-08T01:46:35.408Z,12.43
2023-05-08T01:49:23.696Z,11.18
2023-05-08T01:51:59.071Z,11.13
2023-05-08T01:54:28.673Z,10.98
2023-05-08T01:56:58.331Z,11.57
2023-05-08T01:59:28.195Z,10.18
2023-05-08T02:01:59.760Z,12.02
2023-05-08T02:04:28.305Z,11.30
2023-05-08T02:06:58.683Z,11.27
2023-05-08T02:09:26.968Z,10.95
2023-05-08T02:11:55.370Z,12.23
2023-05-08T02:14:23.493Z,12.65
2023-05-08T02:16:53.621Z,10.98
2023-05-08T02:19:23.306Z,11.70
2023-05-08T02:21:51.709Z,11.18
2023-05-08T02:24:19.787Z,10.88
2023-05-08T02:26:47.531Z,12.55
2023-05-08T02:29:15.498Z,12.63
2023-05-08T02:31:43.088Z,10.90
2023-05-08T02:34:11.294Z,12.60
2023-05-08T02:36:39.700Z,11.07
2023-05-08T02:39:11.957Z,11.52
2023-05-08T02:41:41.162Z,11.43
2023-05-08T02:44:08.862Z,13.75
2023-05-08T02:46:38.505Z,10.82
2023-05-08T02:49:12.803Z,13.23
2023-05-08T02:51:55.592Z,11.38
2023-05-08T02:54:58.338Z,10.93
2023-05-08T02:57:39.518Z,13.82
2023-05-08T03:00:16.178Z,12.65
2023-05-08T03:02:48.400Z,11.65
2023-05-08T03:05:25.073Z,13.02
2023-05-08T03:07:55.873Z,12.90
2023-05-08T03:10:28.421Z,11.00
2023-05-08T03:12:58.241Z,12.43
2023-05-08T03:15:36.463Z,12.75
2023-05-08T03:18:08.828Z,12.68
2023-05-08T03:20:39.085Z,12.55
2023-05-08T03:23:08.170Z,15.43
2023-05-08T03:25:35.929Z,13.63
2023-05-08T03:28:05.934Z,14.38
2023-05-08T03:30:37.796Z,17.52
2023-05-08T03:33:05.418Z,14.95
2023-05-08T03:35:36.159Z,13.18
2023-05-08T03:38:03.830Z,14.73
2023-05-08T03:40:30.823Z,15.20
2023-05-08T03:43:00.801Z,15.90
2023-05-08T03:45:29.174Z,19.48
2023-05-08T03:47:56.452Z,13.85
2023-05-08T03:50:24.163Z,13.52
2023-05-08T03:52:51.473Z,14.73
2023-05-08T03:55:18.430Z,13.48
2023-05-08T03:58:09.928Z,14.35
2023-05-08T04:00:36.699Z,14.77
2023-05-08T04:03:22.816Z,15.43
2023-05-08T04:06:08.761Z,12.98
2023-05-08T04:08:44.735Z,15.20
2023-05-08T04:11:30.914Z,14.50
2023-05-08T04:14:08.332Z,14.13
2023-05-08T04:16:45.255Z,13.10
2023-05-08T04:19:18.246Z,16.70
2023-05-08T04:21:46.828Z,15.13
2023-05-08T04:24:15.901Z,12.77
2023-05-08T04:26:44.464Z,14.45
2023-05-08T04:29:11.620Z,16.42
2023-05-08T04:31:39.834Z,16.45
2023-05-08T04:34:09.137Z,15.55
2023-05-08T04:36:36.086Z,16.38
2023-05-08T04:39:03.637Z,17.73
2023-05-08T04:41:30.680Z,18.35
2023-05-08T04:43:57.661Z,17.30
2023-05-08T04:46:24.755Z,16.23
2023-05-08T04:48:51.612Z,15.35
2023-05-08T04:51:18.540Z,18.85
2023-05-08T04:53:46.126Z,19.15
2023-05-08T04:56:13.989Z,14.30
2023-05-08T04:58:41.126Z,17.00
2023-05-08T05:01:08.161Z,15.90
2023-05-08T05:03:35.002Z,16.10
2023-05-08T05:06:02.807Z,19.95
2023-05-08T05:08:29.872Z,15.93
2023-05-08T05:10:56.959Z,15.15
2023-05-08T05:13:23.927Z,17.52
2023-05-08T05:15:54.202Z,15.88
2023-05-08T05:18:21.479Z,15.30
2023-05-08T05:20:48.609Z,14.45
2023-05-08T05:23:15.379Z,11.32
2023-05-08T05:25:42.383Z,14.32
2023-05-08T05:28:09.293Z,14.63
2023-05-08T05:30:36.232Z,13.40
2023-05-08T05:33:03.096Z,13.55
2023-05-08T05:35:29.892Z,13.85
2023-05-08T05:37:56.779Z,13.77
2023-05-08T05:40:23.612Z,13.60
2023-05-08T05:42:51.147Z,13.00
2023-05-08T05:45:18.476Z,14.13
2023-05-08T05:47:50.741Z,13.20
2023-05-08T05:50:18.606Z,16.05
2023-05-08T05:52:45.723Z,16.05
2023-05-08T05:55:13.313Z,15.80
2023-05-08T05:57:40.280Z,14.35
2023-05-08T06:00:08.391Z,13.10
2023-05-08T06:02:36.586Z,15.10
2023-05-08T06:05:04.848Z,13.60
2023-05-08T06:07:31.754Z,13.48
2023-05-08T06:09:59.690Z,14.80
2023-05-08T06:12:27.942Z,13.13
2023-05-08T06:14:55.291Z,14.32
2023-05-08T06:17:23.005Z,13.48
2023-05-08T06:19:54.358Z,13.25
2023-05-08T06:22:24.407Z,13.82
2023-05-08T06:24:55.068Z,13.02
2023-05-08T06:27:22.839Z,13.88
2023-05-08T06:29:53.386Z,13.90
2023-05-08T06:32:21.213Z,13.15
2023-05-08T06:34:48.445Z,14.63
2023-05-08T06:37:15.377Z,12.38
2023-05-08T06:39:42.188Z,13.30
2023-05-08T06:42:08.991Z,12.95
2023-05-08T06:44:36.053Z,12.27
2023-05-08T06:47:02.950Z,11.68
2023-05-08T06:49:30.006Z,13.18
2023-05-08T06:51:58.083Z,13.15
2023-05-08T06:54:25.313Z,13.27
2023-05-08T06:56:54.179Z,13.00
2023-05-08T06:59:23.257Z,11.32
2023-05-08T07:01:50.601Z,13.40
2023-05-08T07:04:17.457Z,12.20
2023-05-08T07:06:44.261Z,12.85
2023-05-08T07:09:12.123Z,14.48
2023-05-08T07:11:38.969Z,12.02
2023-05-08T07:14:06.247Z,12.20
2023-05-08T07:16:33.091Z,11.75
2023-05-08T07:18:59.888Z,11.70
2023-05-08T07:21:26.801Z,10.30
2023-05-08T07:23:54.603Z,12.35
2023-05-08T07:26:22.420Z,11.70
2023-05-08T07:28:50.733Z,10.68
2023-05-08T07:31:17.581Z,10.90
2023-05-08T07:33:44.356Z,11.23
2023-05-08T07:36:11.434Z,13.40
2023-05-08T07:38:38.256Z,12.30
2023-05-08T07:41:05.494Z,11.98
2023-05-08T07:43:32.434Z,11.85
2023-05-08T07:45:59.490Z,9.88
2023-05-08T07:48:26.265Z,9.65
2023-05-08T07:50:53.097Z,10.15
2023-05-08T07:53:19.910Z,9.77
2023-05-08T07:55:47.768Z,11.35
2023-05-08T07:58:14.685Z,9.57
2023-05-08T08:00:41.446Z,9.07
2023-05-08T08:03:08.348Z,11.68
2023-05-08T08:05:35.225Z,11.35
2023-05-08T08:08:02.133Z,9.48
2023-05-08T08:10:29.795Z,9.30
2023-05-08T08:12:56.622Z,9.93
2023-05-08T08:15:23.501Z,9.35
2023-05-08T08:17:50.290Z,11.07
2023-05-08T08:20:17.223Z,9.05
2023-05-08T08:22:44.041Z,9.85
2023-05-08T08:25:10.928Z,8.38
2023-05-08T08:27:38.013Z,9.95
2023-05-08T08:30:16.962Z,9.32
2023-05-08T08:32:45.797Z,9.75
2023-05-08T08:35:13.498Z,10.80
2023-05-08T08:37:40.509Z,8.57
2023-05-08T08:40:08.010Z,8.98
2023-05-08T08:42:35.060Z,8.40
2023-05-08T08:45:02.074Z,8.55
2023-05-08T08:47:34.639Z,10.77
2023-05-08T08:50:03.783Z,9.77
2023-05-08T08:52:40.954Z,7.55
2023-05-08T08:55:11.678Z,8.88
2023-05-08T08:57:45.819Z,9.07
2023-05-08T09:00:13.366Z,10.73
2023-05-08T09:02:40.373Z,8.30
2023-05-08T09:05:08.008Z,8.23
2023-05-08T09:07:34.888Z,8.85
2023-05-08T09:10:04.410Z,8.68
2023-05-08T09:12:31.654Z,8.13
2023-05-08T09:14:58.932Z,10.32
2023-05-08T09:17:25.901Z,9.00
2023-05-08T09:19:53.232Z,7.82
2023-05-08T09:22:23.666Z,10.07
2023-05-08T09:24:58.999Z,10.70
2023-05-08T09:27:28.059Z,12.27
2023-05-08T09:30:09.816Z,8.27
2023-05-08T09:32:39.463Z,8.75
2023-05-08T09:35:07.836Z,9.48
2023-05-08T09:37:41.849Z,10.10
2023-05-08T09:40:19.094Z,9.57
2023-05-08T09:42:47.692Z,9.48
2023-05-08T09:45:28.244Z,10.25
2023-05-08T09:47:55.234Z,10.65
2023-05-08T09:50:22.090Z,8.73
2023-05-08T09:52:50.739Z,8.20
2023-05-08T09:55:18.236Z,7.97
2023-05-08T09:57:59.166Z,8.18
2023-05-08T10:00:28.068Z,8.77
2023-05-08T10:03:02.839Z,8.32
2023-05-08T10:05:37.127Z,9.05
2023-05-08T10:08:23.621Z,10.50
2023-05-08T10:10:51.167Z,10.57
2023-05-08T10:13:18.062Z,8.52
2023-05-08T10:15:45.819Z,7.28
2023-05-08T10:18:17.170Z,7.72
2023-05-08T10:20:48.136Z,9.82
2023-05-08T10:23:17.530Z,7.78
2023-05-08T10:25:49.793Z,10.98
2023-05-08T10:28:37.048Z,9.57
2023-05-08T10:31:07.686Z,9.30
2023-05-08T10:33:35.732Z,13.15
2023-05-08T10:36:02.653Z,9.38
2023-05-08T10:38:31.182Z,7.85
2023-05-08T10:41:01.288Z,8.07
2023-05-08T10:43:29.727Z,8.48
2023-05-08T10:45:58.467Z,8.38
2023-05-08T10:48:31.136Z,8.65
2023-05-08T10:51:11.963Z,11.90
2023-05-08T10:53:52.451Z,8.73
2023-05-08T10:56:26.268Z,8.88
2023-05-08T10:58:58.037Z,8.93
2023-05-08T11:01:26.297Z,8.43
2023-05-08T11:03:55.928Z,8.50
2023-05-08T11:06:43.374Z,9.73
2023-05-08T11:09:28.443Z,8.18
2023-05-08T11:12:08.868Z,8.55
2023-05-08T11:14:39.390Z,7.78
2023-05-08T11:17:08.146Z,8.25
2023-05-08T11:19:35.951Z,10.77
2023-05-08T11:22:12.766Z,8.55
2023-05-08T11:24:41.445Z,8.45
2023-05-08T11:27:08.222Z,7.47
2023-05-08T11:29:36.211Z,6.82
2023-05-08T11:32:03.187Z,7.88
2023-05-08T11:34:46.035Z,7.72
2023-05-08T11:37:21.096Z,7.00
2023-05-08T11:39:48.666Z,7.90
2023-05-08T11:42:34.782Z,9.02
2023-05-08T11:45:13.539Z,7.43
2023-05-08T11:47:43.346Z,7.00
2023-05-08T11:50:12.904Z,9.32
2023-05-08T11:52:41.920Z,8.15
2023-05-08T11:55:10.921Z,7.70
2023-05-08T11:57:38.292Z,7.18
2023-05-08T12:00:10.148Z,7.68
2023-05-08T12:02:42.529Z,8.43
2023-05-08T12:05:11.116Z,7.75
2023-05-08T12:07:47.723Z,7.35
2023-05-08T12:10:16.119Z,7.13
2023-05-08T12:12:45.277Z,9.13
2023-05-08T12:15:14.618Z,9.02
2023-05-08T12:17:42.393Z,9.18
2023-05-08T12:20:14.649Z,10.23
2023-05-08T12:22:42.596Z,7.10
2023-05-08T12:25:11.807Z,8.52
2023-05-08T12:27:39.652Z,7.75
2023-05-08T12:30:14.460Z,7.05
2023-05-08T12:32:43.740Z,7.07
2023-05-08T12:35:12.604Z,6.30
2023-05-08T12:37:40.026Z,8.32
2023-05-08T12:40:21.999Z,7.20
2023-05-08T12:42:49.961Z,7.72
2023-05-08T12:45:40.529Z,7.72
2023-05-08T12:48:13.007Z,7.32
2023-05-08T12:50:44.248Z,7.30
2023-05-08T12:53:17.177Z,6.70
2023-05-08T12:55:55.310Z,7.68
2023-05-08T12:58:27.110Z,7.40
2023-05-08T13:01:03.194Z,7.63
2023-05-08T13:03:30.543Z,8.20
2023-05-08T13:05:58.525Z,7.18
2023-05-08T13:08:33.422Z,6.95
2023-05-08T13:11:01.351Z,6.90
2023-05-08T13:13:31.124Z,7.47
2023-05-08T13:15:58.381Z,6.43
2023-05-08T13:18:27.476Z,6.45
2023-05-08T13:20:56.139Z,6.43
2023-05-08T13:23:23.336Z,8.48
2023-05-08T13:25:51.222Z,9.18
2023-05-08T13:28:18.143Z,7.03
2023-05-08T13:30:45.054Z,7.93
2023-05-08T13:33:12.079Z,6.90
2023-05-08T13:35:39.043Z,9.27
2023-05-08T13:38:06.085Z,7.15
2023-05-08T13:40:33.166Z,6.97
2023-05-08T13:43:00.127Z,7.00
2023-05-08T13:45:27.095Z,7.95
2023-05-08T13:47:54.483Z,6.60
2023-05-08T13:50:21.834Z,7.68
2023-05-08T13:52:49.870Z,7.60
2023-05-08T13:55:17.710Z,6.57
2023-05-08T13:57:44.688Z,9.38
2023-05-08T14:00:12.195Z,6.57
2023-05-08T14:02:39.110Z,7.55
2023-05-08T14:05:08.245Z,6.30
2023-05-08T14:07:36.059Z,6.60
2023-05-08T14:10:03.318Z,6.30
2023-05-08T14:12:30.555Z,6.18
2023-05-08T14:14:58.158Z,7.75
2023-05-08T14:17:27.688Z,7.82
2023-05-08T14:19:54.583Z,5.80
2023-05-08T14:22:21.372Z,6.32
2023-05-08T14:24:48.171Z,7.78
2023-05-08T14:27:14.962Z,6.00
2023-05-08T14:29:41.783Z,7.80
2023-05-08T14:32:10.884Z,7.88
2023-05-08T14:34:37.759Z,5.88
2023-05-08T14:37:04.594Z,7.03
2023-05-08T14:39:31.457Z,6.53
2023-05-08T14:44:32.463Z,6.95
2023-05-08T14:46:59.291Z,10.48
2023-05-08T14:49:36.643Z,5.93
2023-05-08T14:52:05.528Z,6.10
2023-05-08T14:54:32.544Z,6.72
2023-05-08T14:56:59.549Z,6.03
2023-05-08T14:59:26.678Z,8.73
2023-05-08T15:01:53.616Z,5.88
2023-05-08T15:04:20.799Z,5.68
2023-05-08T15:06:47.798Z,6.60
2023-05-08T15:09:16.493Z,6.20
2023-05-08T15:11:43.537Z,6.82
2023-05-08T15:14:11.344Z,6.07
2023-05-08T15:16:38.342Z,29.35
2023-05-08T15:19:05.264Z,51.47
2023-05-08T15:21:32.220Z,11.68
2023-05-08T15:23:59.065Z,12.15
2023-05-08T15:26:26.036Z,6.85
2023-05-08T15:28:52.876Z,7.65
2023-05-08T15:31:19.788Z,6.65
2023-05-08T15:33:47.749Z,6.50
2023-05-08T15:36:15.011Z,7.53
2023-05-08T15:38:42.598Z,6.50
2023-05-08T15:41:14.609Z,5.80
2023-05-08T15:43:42.327Z,5.63
2023-05-08T15:46:09.180Z,5.93
2023-05-08T15:48:36.132Z,7.20
2023-05-08T15:51:03.077Z,6.90
2023-05-08T15:53:29.973Z,7.10
2023-05-08T15:55:57.258Z,5.68
2023-05-08T15:58:24.474Z,16.02
2023-05-08T16:00:51.503Z,5.63
2023-05-08T16:03:18.717Z,6.10
2023-05-08T16:05:45.804Z,5.15
2023-05-08T16:08:13.626Z,5.55
2023-05-08T16:10:41.450Z,7.00
2023-05-08T16:13:08.894Z,7.25
2023-05-08T16:15:38.787Z,13.60
2023-05-08T16:18:06.236Z,5.30
2023-05-08T16:20:35.102Z,5.68
2023-05-08T16:23:03.010Z,5.97
2023-05-08T16:25:29.926Z,6.35
2023-05-08T16:27:56.848Z,4.80
2023-05-08T16:30:23.705Z,7.15
2023-05-08T16:32:50.679Z,5.43
2023-05-08T16:35:19.368Z,6.03
2023-05-08T16:37:46.320Z,6.00
2023-05-08T16:40:13.266Z,7.30
2023-05-08T16:42:40.090Z,5.07
2023-05-08T16:45:08.099Z,5.10
2023-05-08T16:47:35.527Z,4.88
2023-05-08T16:50:03.102Z,5.82
2023-05-08T16:52:30.582Z,5.45
2023-05-08T16:54:57.474Z,5.20
2023-05-08T16:57:24.318Z,8.85
2023-05-08T16:59:51.897Z,6.32
2023-05-08T17:02:19.160Z,5.97
2023-05-08T17:04:47.481Z,6.65
2023-05-08T17:07:15.541Z,5.13
2023-05-08T17:09:42.751Z,4.38
2023-05-08T17:12:09.720Z,5.93
2023-05-08T17:14:40.523Z,5.25
2023-05-08T17:17:07.995Z,5.55
2023-05-08T17:19:35.347Z,5.60
2023-05-08T17:22:02.610Z,5.15
2023-05-08T17:24:30.415Z,5.05
2023-05-08T17:26:57.258Z,4.78
2023-05-08T17:29:24.344Z,6.07
2023-05-08T17:31:51.289Z,7.38
2023-05-08T17:34:18.172Z,8.60
2023-05-08T17:36:45.253Z,5.45
2023-05-08T17:39:12.486Z,6.05
2023-05-08T17:41:39.290Z,9.35
2023-05-08T17:44:07.004Z,7.00
2023-05-08T17:46:33.846Z,7.55
2023-05-08T17:49:00.771Z,6.95
2023-05-08T17:51:27.609Z,7.28
2023-05-08T17:53:56.036Z,5.65
2023-05-08T17:56:23.404Z,6.82
2023-05-08T17:58:52.354Z,5.60
2023-05-08T18:01:20.362Z,6.35
2023-05-08T18:03:50.517Z,5.97
2023-05-08T18:06:18.077Z,5.68
2023-05-08T18:08:45.810Z,5.28
2023-05-08T18:11:26.304Z,6.32
2023-05-08T18:13:53.924Z,6.47
2023-05-08T18:16:22.014Z,6.68
2023-05-08T18:18:49.711Z,7.10
2023-05-08T18:21:16.710Z,6.13
2023-05-08T18:23:43.640Z,5.00
2023-05-08T18:26:17.195Z,4.65
2023-05-08T18:31:11.905Z,4.88
2023-05-08T18:33:39.228Z,5.40
2023-05-08T18:36:07.014Z,7.40
2023-05-08T18:38:34.412Z,5.40
2023-05-08T18:41:05.156Z,5.78
2023-05-08T18:43:31.995Z,5.85
2023-05-08T18:46:00.502Z,8.52
2023-05-08T18:48:27.691Z,5.10
2023-05-08T18:50:58.317Z,7.25
2023-05-08T18:53:25.202Z,9.05
2023-05-08T18:55:52.850Z,6.47
2023-05-08T18:58:19.683Z,8.35
2023-05-08T19:00:46.556Z,7.03
2023-05-08T19:03:14.391Z,7.05
2023-05-08T19:05:41.924Z,8.15
2023-05-08T19:08:08.786Z,8.55
2023-05-08T19:10:35.589Z,12.55
2023-05-08T19:13:02.433Z,11.38
2023-05-08T19:15:29.565Z,15.05
2023-05-08T19:17:56.462Z,13.25
2023-05-08T19:20:23.426Z,9.65
2023-05-08T19:22:50.334Z,7.60
2023-05-08T19:25:17.127Z,7.18
2023-05-08T19:27:43.941Z,10.18
2023-05-08T19:30:11.521Z,11.02
2023-05-08T19:32:38.506Z,8.43
2023-05-08T19:35:05.694Z,12.43
2023-05-08T19:37:32.499Z,10.52
2023-05-08T19:39:59.292Z,8.73
2023-05-08T19:42:26.259Z,9.50
2023-05-08T19:44:53.044Z,7.97
2023-05-08T19:47:19.822Z,8.90
2023-05-08T19:49:46.619Z,9.40
2023-05-08T19:52:13.430Z,9.40
2023-05-08T19:54:40.323Z,10.20
2023-05-08T19:57:07.096Z,12.73
2023-05-08T19:59:34.005Z,9.30
2023-05-08T20:02:01.299Z,10.68
2023-05-08T20:04:28.530Z,11.32
2023-05-08T20:06:55.558Z,11.88
2023-05-08T20:09:22.562Z,10.48
2023-05-08T20:11:49.738Z,11.48
2023-05-08T20:14:16.605Z,11.60
2023-05-08T20:16:43.522Z,7.65
2023-05-08T20:19:10.519Z,8.68
2023-05-08T20:21:37.322Z,10.07
2023-05-08T20:24:04.428Z,8.90
2023-05-08T20:26:32.343Z,10.93
2023-05-08T20:28:59.784Z,8.45
2023-05-08T20:31:27.743Z,9.35
2023-05-08T20:33:54.724Z,7.15
2023-05-08T20:36:21.569Z,8.80
2023-05-08T20:38:48.396Z,7.57
2023-05-08T20:41:15.329Z,8.20
2023-05-08T20:43:42.141Z,13.90
2023-05-08T20:46:09.933Z,8.93
2023-05-08T20:48:38.336Z,8.10
2023-05-08T20:51:05.156Z,9.98
2023-05-08T20:53:32.689Z,7.90
2023-05-08T20:56:03.879Z,10.23
2023-05-08T20:58:31.291Z,9.00
2023-05-08T21:00:58.146Z,9.25
2023-05-08T21:03:25.136Z,9.63
2023-05-08T21:05:52.040Z,8.57
2023-05-08T21:08:26.343Z,10.07
2023-05-08T21:10:53.180Z,15.13
2023-05-08T21:13:20.166Z,8.20
2023-05-08T21:15:50.531Z,10.90
2023-05-08T21:18:17.641Z,9.25
2023-05-08T21:20:50.395Z,9.45
2023-05-08T21:23:18.743Z,9.88
2023-05-08T21:25:47.036Z,9.60
2023-05-08T21:28:15.144Z,9.63
2023-05-08T21:30:45.356Z,9.68
2023-05-08T21:33:15.740Z,9.30
2023-05-08T21:35:43.600Z,10.32
2023-05-08T21:38:13.642Z,9.70
2023-05-08T21:40:40.496Z,11.02
2023-05-08T21:43:08.507Z,10.35
2023-05-08T21:45:35.545Z,10.85
2023-05-08T21:48:02.959Z,11.25
2023-05-08T21:50:29.936Z,9.68
2023-05-08T21:52:57.064Z,9.82
2023-05-08T21:55:24.157Z,9.40
2023-05-08T21:57:51.153Z,9.40
2023-05-08T22:00:18.377Z,11.27
2023-05-08T22:02:45.482Z,15.70
2023-05-08T22:05:12.647Z,12.57
2023-05-08T22:07:39.657Z,11.73
2023-05-08T22:10:09.092Z,10.55
2023-05-08T22:12:36.102Z,11.48
2023-05-08T22:15:05.864Z,10.77
2023-05-08T22:17:36.660Z,10.85
2023-05-08T22:20:03.988Z,10.00
2023-05-08T22:22:31.438Z,9.32
2023-05-08T22:24:58.424Z,9.98
2023-05-08T22:27:25.214Z,9.57
2023-05-08T22:29:52.041Z,9.50
2023-05-08T22:32:19.011Z,10.77
2023-05-08T22:34:49.677Z,10.10
2023-05-08T22:37:17.562Z,12.15
2023-05-08T22:39:44.427Z,11.35
2023-05-08T22:42:11.585Z,9.70
2023-05-08T22:44:38.489Z,11.73
2023-05-08T22:47:05.931Z,13.00
2023-05-08T22:49:32.900Z,11.65
2023-05-08T22:51:59.978Z,12.68
2023-05-08T22:54:26.866Z,12.57
2023-05-08T22:56:53.716Z,8.85
2023-05-08T22:59:20.546Z,11.93
2023-05-08T23:01:47.454Z,8.73
2023-05-08T23:04:14.369Z,9.63
2023-05-08T23:06:41.339Z,9.40
2023-05-08T23:09:08.347Z,8.98
2023-05-08T23:11:35.245Z,10.50
2023-05-08T23:14:02.383Z,10.10
2023-05-08T23:16:29.565Z,10.93
2023-05-08T23:18:56.620Z,10.65
2023-05-08T23:21:23.533Z,9.35
2023-05-08T23:23:50.751Z,9.20
2023-05-08T23:26:18.330Z,11.18
2023-05-08T23:28:45.137Z,9.68
2023-05-08T23:31:11.991Z,9.77
2023-05-08T23:33:38.914Z,12.32
2023-05-08T23:36:06.231Z,13.45
2023-05-08T23:38:33.038Z,12.52
2023-05-08T23:40:59.821Z,11.95
2023-05-08T23:43:27.007Z,10.38
2023-05-08T23:45:53.796Z,11.82
2023-05-08T23:48:21.290Z,11.50
2023-05-08T23:50:48.228Z,9.88
2023-05-08T23:53:15.411Z,10.10
2023-05-08T23:55:42.275Z,11.32
2023-05-08T23:58:09.081Z,10.73
